Time;durP1;ratioP1;P1;durP2;ratioP2;P2;SDS_P1;SDS_P2;PMS_P1;PMS_P2;Temp;Humidity;BMP_temperature;BMP_pressure;BME280_temperature;BME280_humidity;BME280_pressure;Samples;Min_cycle;Max_cycle;Signal;HPM_P1;HPM_P2
2021/12/13 00:08:43;;;;;;;37.60;16.60;;;1.70;99.90;;;;;;20631245;28;20030;-77
2021/12/13 00:18:46;;;;;;;37.10;16.48;;;1.80;99.90;;;;;;20632424;28;20064;-78
2021/12/13 00:28:47;;;;;;;38.53;16.67;;;1.90;99.90;;;;;;20632369;28;20026;-76
2021/12/13 00:38:54;;;;;;;37.33;16.48;;;1.90;99.90;;;;;;20662110;28;20102;-77
2021/12/13 00:48:59;;;;;;;43.40;17.27;;;1.80;99.90;;;;;;20666932;28;20117;-76
2021/12/13 00:59:00;;;;;;;38.10;17.42;;;1.90;99.90;;;;;;20668917;28;20045;-76
2021/12/13 01:09:38;;;;;;;37.70;15.93;;;1.90;99.90;;;;;;20667585;28;20046;-76
2021/12/13 01:19:50;;;;;;;37.97;15.25;;;1.90;99.90;;;;;;20667040;28;20104;-77
2021/12/13 01:29:51;;;;;;;33.85;14.32;;;1.80;99.90;;;;;;20666314;28;20552;-76
2021/12/13 01:39:54;;;;;;;36.63;15.93;;;1.90;99.90;;;;;;20665897;28;20453;-76
2021/12/13 01:50:04;;;;;;;34.45;14.32;;;1.90;99.90;;;;;;20664878;28;20041;-76
2021/12/13 02:00:18;;;;;;;36.72;15.68;;;1.90;99.90;;;;;;20664473;28;20393;-76
2021/12/13 02:10:45;;;;;;;42.55;16.23;;;1.90;99.90;;;;;;20663386;28;20034;-77
2021/12/13 02:21:02;;;;;;;38.92;17.67;;;1.90;99.90;;;;;;20662257;28;20513;-76
2021/12/13 02:31:08;;;;;;;42.13;18.10;;;1.90;99.90;;;;;;20662567;28;20034;-76
2021/12/13 02:41:10;;;;;;;39.13;17.67;;;1.90;99.90;;;;;;20662403;28;20034;-76
2021/12/13 02:51:27;;;;;;;47.67;18.90;;;1.80;99.90;;;;;;20661679;28;20169;-76
2021/12/13 03:02:02;;;;;;;38.83;18.45;;;1.90;99.90;;;;;;20663223;28;20030;-77
2021/12/13 03:12:08;;;;;;;38.70;17.50;;;1.90;99.90;;;;;;20663184;28;20030;-77
2021/12/13 03:22:33;;;;;;;46.92;18.45;;;1.90;99.90;;;;;;20663489;28;20035;-78
2021/12/13 03:32:53;;;;;;;46.92;17.48;;;1.80;99.90;;;;;;20665019;28;20051;-78
2021/12/13 03:42:59;;;;;;;44.80;17.70;;;1.90;99.90;;;;;;20678122;28;20084;-78
2021/12/13 03:53:05;;;;;;;42.15;17.23;;;1.80;99.90;;;;;;20676940;28;20548;-78
2021/12/13 04:03:09;;;;;;;44.45;17.35;;;1.80;99.90;;;;;;20675631;28;20030;-78
2021/12/13 04:13:14;;;;;;;45.95;17.33;;;1.70;99.90;;;;;;20674848;28;20034;-78
2021/12/13 04:23:19;;;;;;;43.53;18.38;;;1.60;99.90;;;;;;20673568;28;20038;-77
2021/12/13 04:33:37;;;;;;;38.30;17.48;;;1.50;99.90;;;;;;20673574;28;20045;-77
2021/12/13 04:43:37;;;;;;;44.13;19.23;;;1.40;99.90;;;;;;20672100;28;20490;-76
2021/12/13 04:53:44;;;;;;;34.15;14.60;;;1.30;99.90;;;;;;20669144;28;20054;-76
2021/12/13 05:03:54;;;;;;;33.95;15.57;;;1.00;99.90;;;;;;20668508;28;20034;-75
2021/12/13 05:13:57;;;;;;;34.70;15.30;;;1.20;99.90;;;;;;20667964;28;20034;-76
2021/12/13 05:24:03;;;;;;;44.72;15.45;;;1.10;99.90;;;;;;20667810;28;20037;-78
2021/12/13 05:34:06;;;;;;;45.70;16.05;;;1.10;99.90;;;;;;20672958;28;20033;-78
2021/12/13 05:44:11;;;;;;;50.50;18.88;;;1.00;99.90;;;;;;20667633;28;20030;-78
2021/12/13 05:54:28;;;;;;;39.75;16.13;;;0.90;99.90;;;;;;20666716;28;20057;-78
2021/12/13 06:04:43;;;;;;;49.33;19.83;;;0.80;99.90;;;;;;20665719;28;20041;-78
2021/12/13 06:14:44;;;;;;;44.78;18.35;;;0.90;99.90;;;;;;20665673;28;20103;-76
2021/12/13 06:24:56;;;;;;;43.67;17.55;;;0.80;99.90;;;;;;20665484;28;20065;-78
2021/12/13 06:34:59;;;;;;;39.67;16.05;;;0.90;99.90;;;;;;20663574;28;20026;-77
2021/12/13 06:45:00;;;;;;;41.50;17.08;;;0.60;99.90;;;;;;20664444;28;20043;-78
2021/12/13 06:55:11;;;;;;;38.20;15.48;;;0.60;99.90;;;;;;20665240;28;20577;-78
2021/12/13 07:05:35;;;;;;;40.45;16.13;;;0.60;99.90;;;;;;20666326;28;20045;-77
2021/12/13 07:15:50;;;;;;;35.17;14.38;;;0.60;99.90;;;;;;20680482;28;20026;-78
2021/12/13 07:25:53;;;;;;;30.35;14.00;;;0.60;99.90;;;;;;20682361;28;20034;-77
2021/12/13 07:35:55;;;;;;;39.55;16.33;;;0.60;99.90;;;;;;20680680;28;20032;-78
2021/12/13 07:46:05;;;;;;;40.15;16.52;;;0.70;99.90;;;;;;20679147;28;20073;-77
2021/12/13 07:56:07;;;;;;;32.97;15.15;;;0.70;99.90;;;;;;20674490;28;20038;-76
2021/12/13 08:06:08;;;;;;;36.05;16.02;;;0.90;99.90;;;;;;20673251;28;20035;-77
2021/12/13 08:16:09;;;;;;;32.17;14.65;;;0.80;99.90;;;;;;20672213;28;20045;-77
2021/12/13 08:26:23;;;;;;;45.47;17.10;;;0.80;99.90;;;;;;20670540;28;20108;-77
2021/12/13 08:36:24;;;;;;;42.35;16.90;;;0.80;99.90;;;;;;20665411;28;20226;-77
2021/12/13 08:46:32;;;;;;;48.35;17.90;;;1.20;99.90;;;;;;20589677;28;20059;-77
2021/12/13 08:56:43;;;;;;;44.97;18.70;;;1.50;99.90;;;;;;20588966;28;20101;-77
2021/12/13 09:06:51;;;;;;;39.40;17.00;;;1.70;99.90;;;;;;20589030;28;20490;-77
2021/12/13 09:17:15;;;;;;;34.08;16.20;;;1.90;99.90;;;;;;20592786;28;20034;-77
2021/12/13 09:27:28;;;;;;;36.05;16.20;;;2.10;99.90;;;;;;20590589;28;20375;-77
2021/12/13 09:37:34;;;;;;;35.30;15.57;;;2.20;99.90;;;;;;20591676;28;20108;-77
2021/12/13 09:47:38;;;;;;;38.78;18.80;;;2.00;99.90;;;;;;20589693;28;20694;-77
2021/12/13 09:57:56;;;;;;;42.10;17.88;;;2.20;99.90;;;;;;20592629;28;20974;-78
2021/12/13 10:08:01;;;;;;;37.35;17.95;;;2.60;99.90;;;;;;20593695;28;20405;-78
2021/12/13 10:18:08;;;;;;;35.50;16.90;;;2.80;99.90;;;;;;20592961;28;20129;-78
2021/12/13 10:28:13;;;;;;;34.55;18.42;;;2.70;99.90;;;;;;20593360;28;20066;-78
2021/12/13 10:38:25;;;;;;;43.53;17.88;;;2.90;99.90;;;;;;20594216;28;20043;-79
2021/12/13 10:48:30;;;;;;;35.10;16.92;;;3.10;99.90;;;;;;20610302;28;20070;-77
2021/12/13 10:58:34;;;;;;;35.03;15.77;;;3.30;99.90;;;;;;20612425;28;20134;-78
2021/12/13 11:08:41;;;;;;;30.98;14.10;;;3.90;99.90;;;;;;20612066;28;20042;-77
2021/12/13 11:18:45;;;;;;;28.48;13.00;;;5.00;99.90;;;;;;20612235;28;20073;-77
2021/12/13 11:28:46;;;;;;;21.65;12.05;;;4.50;99.90;;;;;;20611763;28;20037;-77
2021/12/13 11:39:12;;;;;;;25.85;11.90;;;4.30;99.90;;;;;;20612112;28;20026;-77
2021/12/13 11:49:41;;;;;;;28.98;12.98;;;4.90;99.90;;;;;;20611593;28;21355;-77
2021/12/13 11:59:59;;;;;;;32.03;14.05;;;5.00;99.90;;;;;;20602073;28;20058;-78
2021/12/13 12:10:22;;;;;;;28.25;12.82;;;4.80;99.90;;;;;;20597221;28;20033;-78
2021/12/13 12:20:37;;;;;;;27.45;13.60;;;4.90;99.90;;;;;;20595919;28;20035;-79
2021/12/13 12:30:42;;;;;;;27.83;14.15;;;5.00;99.90;;;;;;20595053;28;20064;-79
2021/12/13 12:41:14;;;;;;;26.67;13.68;;;4.90;99.90;;;;;;20663795;28;20085;-77
2021/12/13 12:51:20;;;;;;;;;;;4.80;99.90;;;;;;20668328;28;20096;-77
2021/12/13 13:01:31;;;;;;;22.58;10.88;;;4.60;99.90;;;;;;20667526;28;19910;-77
2021/12/13 13:11:33;;;;;;;29.50;12.15;;;4.70;99.90;;;;;;20667726;28;20106;-78
2021/12/13 13:21:45;;;;;;;30.40;12.35;;;4.70;99.90;;;;;;20591107;28;20058;-77
2021/12/13 13:31:52;;;;;;;27.55;12.90;;;4.80;99.90;;;;;;20588859;28;20038;-77
2021/12/13 13:42:04;;;;;;;33.45;13.73;;;5.10;99.90;;;;;;20585514;28;20490;-76
2021/12/13 13:52:31;;;;;;;28.55;13.55;;;4.90;99.90;;;;;;20622727;28;20041;-76
2021/12/13 14:02:37;;;;;;;30.92;14.23;;;5.00;99.90;;;;;;20581868;28;20568;-76
2021/12/13 14:12:53;;;;;;;27.65;13.43;;;5.10;99.90;;;;;;20584716;28;20031;-77
2021/12/13 14:23:14;;;;;;;35.20;14.15;;;4.80;99.90;;;;;;20590634;28;20042;-77
2021/12/13 14:33:24;;;;;;;27.43;14.60;;;4.70;99.90;;;;;;20575669;28;20134;-77
2021/12/13 14:43:30;;;;;;;34.85;15.70;;;4.70;99.90;;;;;;20581795;28;20046;-76
2021/12/13 14:53:34;;;;;;;43.38;16.30;;;4.60;99.90;;;;;;20581547;28;20517;-77
2021/12/13 15:03:43;;;;;;;41.15;15.70;;;4.60;99.90;;;;;;20581173;28;20027;-77
2021/12/13 15:14:01;;;;;;;34.55;14.57;;;4.60;99.90;;;;;;20581246;28;20031;-77
2021/12/13 15:24:02;;;;;;;42.70;16.05;;;4.60;99.90;;;;;;20580415;28;20772;-77
2021/12/13 15:34:03;;;;;;;;;;;4.50;99.90;;;;;;20590149;28;20035;-77
2021/12/13 15:44:11;;;;;;;43.42;17.10;;;4.40;99.90;;;;;;20597126;28;19923;-76
2021/12/13 15:54:17;;;;;;;23.45;10.48;;;4.10;99.90;;;;;;20593982;28;20038;-76
2021/12/13 16:04:25;;;;;;;19.67;9.05;;;4.00;99.90;;;;;;20593108;28;20031;-77
2021/12/13 16:14:31;;;;;;;17.63;8.23;;;3.70;99.90;;;;;;20593119;28;20043;-78
2021/12/13 16:24:32;;;;;;;18.88;8.52;;;3.70;99.90;;;;;;20593617;28;20050;-77
2021/12/13 16:34:33;;;;;;;17.65;8.18;;;3.70;99.90;;;;;;20593599;28;20062;-78
2021/12/13 16:44:38;;;;;;;21.60;8.05;;;3.40;99.90;;;;;;20593435;28;20077;-78
2021/12/13 16:54:48;;;;;;;17.40;8.88;;;3.10;99.90;;;;;;20592803;28;20038;-77
2021/12/13 17:04:57;;;;;;;20.63;8.90;;;3.10;99.90;;;;;;20588503;28;20118;-77
2021/12/13 17:15:08;;;;;;;15.95;7.80;;;3.20;99.90;;;;;;20588065;28;20093;-77
2021/12/13 17:25:09;;;;;;;14.07;7.18;;;3.10;99.90;;;;;;20587119;28;20035;-77
2021/12/13 17:35:16;;;;;;;19.92;7.85;;;3.00;99.90;;;;;;20596982;28;20042;-77
2021/12/13 17:45:29;;;;;;;19.27;6.72;;;3.00;99.90;;;;;;20594363;28;20034;-79
2021/12/13 17:55:32;;;;;;;12.90;6.68;;;3.00;99.90;;;;;;20623853;28;20396;-79
2021/12/13 18:05:33;;;;;;;11.30;6.65;;;3.00;99.90;;;;;;20675806;28;20041;-78
2021/12/13 18:15:40;;;;;;;15.38;6.53;;;3.00;99.90;;;;;;20646429;28;20055;-78
2021/12/13 18:25:53;;;;;;;9.00;4.97;;;2.90;99.90;;;;;;20663163;28;20494;-77
2021/12/13 18:35:58;;;;;;;14.15;6.05;;;2.70;99.90;;;;;;20659007;28;20550;-78
2021/12/13 18:45:59;;;;;;;23.35;7.38;;;2.60;99.90;;;;;;20657578;28;20040;-77
2021/12/13 18:56:08;;;;;;;20.50;8.20;;;2.60;99.90;;;;;;20662562;28;20084;-78
2021/12/13 19:06:14;;;;;;;24.80;9.30;;;2.90;99.90;;;;;;20609420;28;20034;-79
2021/12/13 19:16:56;;;;;;;32.13;11.77;;;2.90;99.90;;;;;;20596963;28;20039;-78
2021/12/13 19:27:05;;;;;;;30.83;12.55;;;2.90;99.90;;;;;;20637939;28;20096;-77
2021/12/13 19:37:09;;;;;;;40.00;10.38;;;2.80;99.90;;;;;;20638430;28;20066;-79
2021/12/13 19:47:17;;;;;;;23.42;7.70;;;2.50;99.90;;;;;;20682861;28;20161;-79
2021/12/13 19:57:23;;;;;;;35.20;13.60;;;2.20;99.90;;;;;;20679933;28;20088;-77
2021/12/13 20:07:38;;;;;;;34.70;11.68;;;2.40;99.90;;;;;;20666576;28;20568;-76
2021/12/13 20:17:43;;;;;;;47.17;15.70;;;2.40;99.90;;;;;;20590907;28;20039;-77
2021/12/13 20:27:51;;;;;;;49.20;18.63;;;2.60;99.90;;;;;;20591413;28;20042;-77
2021/12/13 20:38:19;;;;;;;54.00;18.70;;;2.50;99.90;;;;;;20590735;28;20038;-76
2021/12/13 20:48:31;;;;;;;62.22;20.85;;;2.50;99.90;;;;;;20589901;28;20528;-76
2021/12/13 20:58:41;;;;;;;48.95;18.38;;;2.50;99.90;;;;;;20589291;28;20406;-76
2021/12/13 21:08:46;;;;;;;62.75;20.90;;;2.50;99.90;;;;;;20587231;28;20434;-77
2021/12/13 21:18:50;;;;;;;69.45;21.83;;;2.50;99.90;;;;;;20587392;28;20035;-76
2021/12/13 21:28:59;;;;;;;75.32;22.92;;;2.50;99.90;;;;;;20586648;28;20041;-77
2021/12/13 21:39:18;;;;;;;63.95;22.30;;;2.40;99.90;;;;;;20586164;28;20030;-76
2021/12/13 21:49:24;;;;;;;82.32;23.02;;;2.30;99.90;;;;;;20585827;28;20027;-76
2021/12/13 21:59:33;;;;;;;63.13;21.00;;;2.30;99.90;;;;;;20584721;28;20041;-76
2021/12/13 22:09:45;;;;;;;59.92;23.10;;;2.40;99.90;;;;;;20599279;28;20050;-77
2021/12/13 22:19:54;;;;;;;81.40;22.35;;;2.40;99.90;;;;;;20589829;28;20048;-76
2021/12/13 22:29:57;;;;;;;80.07;24.80;;;2.20;99.90;;;;;;20589444;28;20038;-76
2021/12/13 22:40:26;;;;;;;57.30;22.23;;;2.10;99.90;;;;;;20589368;28;20512;-76
2021/12/13 22:50:37;;;;;;;69.22;24.65;;;2.20;99.90;;;;;;20586059;28;20501;-76
2021/12/13 23:00:37;;;;;;;62.70;22.03;;;2.30;99.90;;;;;;20589666;28;20055;-75
2021/12/13 23:11:08;;;;;;;48.00;17.63;;;2.30;99.90;;;;;;20586607;28;20041;-77
2021/12/13 23:21:09;;;;;;;41.75;15.55;;;2.30;99.90;;;;;;20585089;28;20116;-77
2021/12/13 23:31:14;;;;;;;51.35;18.35;;;2.30;99.90;;;;;;20584615;28;20049;-77
2021/12/13 23:51:40;;;;;;;52.85;19.33;;;2.00;99.90;;;;;;20619483;28;20099;-78
